Time;durP1;ratioP1;P1;durP2;ratioP2;P2;SDS_P1;SDS_P2;PMS_P1;PMS_P2;Temp;Humidity;BMP_temperature;BMP_pressure;BME280_temperature;BME280_humidity;BME280_pressure;Samples;Min_cycle;Max_cycle;Signal;HPM_P1;HPM_P2
2021/10/17 00:07:28;;;;;;;;;;;7.80;99.90;;;;;;21002945;28;19977;-79
2021/10/17 00:17:29;;;;;;;;;;;7.80;99.90;;;;;;21011571;28;20326;-79
2021/10/17 00:27:29;;;;;;;;;;;7.70;99.90;;;;;;21013891;28;19916;-78
2021/10/17 00:37:31;;;;;;;;;;;7.60;99.90;;;;;;21013411;28;19923;-78
2021/10/17 00:47:32;;;;;;;;;;;7.50;99.90;;;;;;21031223;28;19970;-79
2021/10/17 00:57:33;;;;;;;;;;;7.30;99.90;;;;;;21031085;28;20363;-78
2021/10/17 01:07:34;;;;;;;;;;;6.80;99.90;;;;;;21068747;22;19924;-75
2021/10/17 01:17:35;;;;;;;;;;;6.10;99.90;;;;;;21079987;28;20562;-75
2021/10/17 01:27:36;;;;;;;;;;;5.70;99.90;;;;;;21061728;28;19927;-75
2021/10/17 01:37:37;;;;;;;;;;;5.70;99.90;;;;;;21060023;28;19947;-75
2021/10/17 01:47:44;;;;;;;;;;;5.80;99.90;;;;;;21058704;28;19916;-74
2021/10/17 01:57:44;;;;;;;;;;;5.70;99.90;;;;;;21059522;28;20365;-74
2021/10/17 02:07:49;;;;;;;;;;;6.20;99.90;;;;;;21057376;28;20413;-75
2021/10/17 02:17:50;;;;;;;;;;;6.40;99.90;;;;;;21075058;28;19969;-74
2021/10/17 02:27:51;;;;;;;;;;;6.40;99.90;;;;;;21057428;28;19920;-75
2021/10/17 02:37:52;;;;;;;;;;;6.40;99.90;;;;;;21066716;28;19999;-75
2021/10/17 02:47:54;;;;;;;;;;;6.50;99.90;;;;;;21056478;28;19967;-75
2021/10/17 02:57:56;;;;;;;;;;;6.60;99.90;;;;;;21055851;28;19966;-75
2021/10/17 03:07:57;;;;;;;;;;;6.60;99.90;;;;;;21054862;28;19985;-75
2021/10/17 03:17:58;;;;;;;;;;;6.50;99.90;;;;;;21054663;28;19915;-75
2021/10/17 03:27:59;;;;;;;;;;;6.50;99.90;;;;;;21039374;28;19958;-75
2021/10/17 03:38:04;;;;;;;;;;;6.50;99.90;;;;;;21069252;28;19919;-75
2021/10/17 03:48:06;;;;;;;;;;;6.50;99.90;;;;;;21068351;28;19916;-74
2021/10/17 03:58:07;;;;;;;;;;;6.50;99.90;;;;;;21071873;28;19912;-74
2021/10/17 04:08:08;;;;;;;;;;;6.50;99.90;;;;;;21067096;28;19927;-75
2021/10/17 04:18:09;;;;;;;;;;;6.60;99.90;;;;;;21049440;28;20398;-75
2021/10/17 04:28:10;;;;;;;;;;;6.60;99.90;;;;;;21073843;28;19915;-75
2021/10/17 04:38:12;;;;;;;;;;;6.70;99.90;;;;;;21065041;28;19955;-75
2021/10/17 04:48:15;;;;;;;;;;;6.60;99.90;;;;;;21062536;28;20393;-75
2021/10/17 04:58:16;;;;;;;;;;;6.60;99.90;;;;;;21062717;28;19919;-75
2021/10/17 05:08:17;;;;;;;;;;;6.70;99.90;;;;;;21061815;28;19916;-75
2021/10/17 05:18:19;;;;;;;;;;;6.70;99.90;;;;;;21061054;28;19947;-74
2021/10/17 05:28:26;;;;;;;;;;;6.70;99.90;;;;;;21060109;28;19916;-75
2021/10/17 05:38:31;;;;;;;;;;;6.70;99.90;;;;;;21059732;28;19912;-74
2021/10/17 05:48:32;;;;;;;;;;;6.70;99.90;;;;;;21058958;28;19972;-75
2021/10/17 05:58:33;;;;;;;;;;;6.70;99.90;;;;;;21058077;28;20359;-75
2021/10/17 06:08:36;;;;;;;;;;;6.70;99.90;;;;;;21048432;28;19916;-75
2021/10/17 06:18:37;;;;;;;;;;;6.70;99.90;;;;;;21051211;28;20358;-75
2021/10/17 06:28:38;;;;;;;;;;;6.70;99.90;;;;;;21002264;28;19989;-75
2021/10/17 06:38:39;;;;;;;;;;;6.80;99.90;;;;;;21056390;28;19912;-75
2021/10/17 06:48:40;;;;;;;;;;;6.90;99.90;;;;;;21055849;28;19999;-73
2021/10/17 06:58:41;;;;;;;;;;;7.00;99.90;;;;;;21055414;28;19912;-74
2021/10/17 07:08:42;;;;;;;;;;;7.00;99.90;;;;;;20998776;22;19951;-76
2021/10/17 07:18:51;;;;;;;;;;;7.10;99.90;;;;;;20904698;28;20402;-76
2021/10/17 07:28:52;;;;;;;;;;;7.10;99.90;;;;;;20903971;28;19978;-77
2021/10/17 07:38:53;;;;;;;;;;;7.20;99.90;;;;;;20909357;28;19913;-76
2021/10/17 07:48:58;;;;;;;;;;;7.70;99.90;;;;;;20906701;28;19924;-77
2021/10/17 07:58:59;;;;;;;;;;;7.70;99.90;;;;;;20901478;28;19920;-76
2021/10/17 08:09:04;;;;;;;;;;;7.80;99.90;;;;;;20899865;28;19924;-77
2021/10/17 08:19:06;;;;;;;;;;;8.00;99.90;;;;;;20900058;28;19913;-76
2021/10/17 08:29:07;;;;;;;;;;;8.20;99.90;;;;;;20897736;28;20071;-76
2021/10/17 08:39:08;;;;;;;;;;;8.50;99.90;;;;;;20898089;28;19944;-76
2021/10/17 08:49:21;;;;;;;;;;;8.60;99.90;;;;;;20897262;28;19916;-76
2021/10/17 08:59:22;;;;;;;;;;;8.80;99.90;;;;;;20896600;28;19920;-77
2021/10/17 09:09:24;;;;;;;;;;;9.00;99.90;;;;;;20895569;28;19923;-76
2021/10/17 09:19:34;;;;;;;;;;;9.10;99.90;;;;;;20894720;28;19913;-76
2021/10/17 09:29:37;;;;;;;;;;;9.30;99.90;;;;;;20893425;28;19917;-76
2021/10/17 09:39:45;;;;;;;;;;;9.70;99.90;;;;;;20910493;28;19912;-76
2021/10/17 09:50:13;;;;;;;;;;;9.90;99.90;;;;;;20929987;28;20370;-78
2021/10/17 10:00:14;;;;;;;;;;;10.10;99.90;;;;;;20922871;28;20476;-78
2021/10/17 10:10:15;;;;;;;;;;;10.10;99.90;;;;;;20882099;28;19952;-78
2021/10/17 10:20:16;;;;;;;;;;;10.30;99.90;;;;;;20892986;28;19924;-77
2021/10/17 10:30:18;;;;;;;;;;;10.50;99.90;;;;;;20896890;28;19921;-78
2021/10/17 10:40:18;;;;;;;;;;;10.40;99.90;;;;;;20941758;28;19984;-77
2021/10/17 10:50:33;;;;;;;;;;;10.60;99.90;;;;;;20955283;28;20073;-78
2021/10/17 11:00:35;;;;;;;;;;;10.80;99.90;;;;;;20934721;28;19917;-78
2021/10/17 11:10:36;;;;;;;;;;;11.30;99.90;;;;;;20940294;28;19927;-78
2021/10/17 11:20:46;;;;;;;;;;;11.90;99.90;;;;;;20922942;28;19917;-77
2021/10/17 11:30:47;;;;;;;;;;;12.50;99.90;;;;;;20909068;28;19928;-77
2021/10/17 11:40:48;;;;;;;;;;;12.90;99.90;;;;;;20913596;28;20433;-77
2021/10/17 11:50:49;;;;;;;;;;;12.90;99.90;;;;;;20904836;28;19921;-77
2021/10/17 12:00:51;;;;;;;;;;;13.70;99.90;;;;;;20897826;28;19951;-77
2021/10/17 12:11:01;;;;;;;;;;;14.30;99.90;;;;;;20881020;28;19921;-77
2021/10/17 12:21:03;;;;;;;;;;;15.40;99.90;;;;;;20880079;28;19921;-78
2021/10/17 12:31:04;;;;;;;;;;;16.30;99.90;;;;;;20897253;28;19975;-77
2021/10/17 12:41:06;;;;;;;;;;;16.70;99.90;;;;;;20897125;28;19923;-77
2021/10/17 12:51:25;;;;;;;;;;;16.70;99.90;;;;;;20877958;28;20594;-77
2021/10/17 13:01:26;;;;;;;;;;;17.00;99.90;;;;;;20891744;28;19956;-77
2021/10/17 13:11:34;;;;;;;;;;;17.50;99.90;;;;;;20951566;22;19936;-82
2021/10/17 13:21:35;;;;;;;;;;;16.70;99.90;;;;;;20924278;28;19944;-81
2021/10/17 13:31:36;;;;;;;;;;;17.50;99.90;;;;;;20883478;28;20007;-83
2021/10/17 13:41:36;;;;;;;;;;;17.70;99.90;;;;;;20903978;28;19917;-81
2021/10/17 13:51:37;;;;;;;;;;;18.20;99.90;;;;;;20908223;28;19921;-81
2021/10/17 14:01:38;;;;;;;;;;;18.30;99.90;;;;;;20887011;28;20448;-81
2021/10/17 14:11:39;;;;;;;;;;;18.20;99.90;;;;;;20904793;28;19928;-81
2021/10/17 14:21:41;;;;;;;;;;;18.30;99.90;;;;;;20885593;28;20253;-81
2021/10/17 14:31:43;;;;;;;;;;;18.30;99.90;;;;;;20886743;28;19920;-81
2021/10/17 14:41:43;;;;;;;;;;;18.30;99.90;;;;;;20908335;28;19913;-83
2021/10/17 14:51:44;;;;;;;;;;;17.60;99.90;;;;;;20894191;28;19955;-81
2021/10/17 15:01:45;;;;;;;;;;;18.10;99.90;;;;;;20929071;28;19924;-82
2021/10/17 15:11:46;;;;;;;;;;;17.20;99.90;;;;;;20922161;28;19955;-80
2021/10/17 15:21:47;;;;;;;;;;;16.90;99.90;;;;;;20947627;28;19917;-80
2021/10/17 15:31:48;;;;;;;;;;;16.60;99.90;;;;;;20932821;28;20019;-81
2021/10/17 15:41:49;;;;;;;;;;;14.30;99.90;;;;;;20939430;28;19978;-79
2021/10/17 15:51:50;;;;;;;;;;;14.20;99.90;;;;;;20910965;28;19948;-78
2021/10/17 16:01:51;;;;;;;;;;;13.30;99.90;;;;;;20885403;28;19919;-78
2021/10/17 16:11:51;;;;;;;;;;;12.70;99.90;;;;;;20910396;28;19925;-80
2021/10/17 16:21:52;;;;;;;;;;;12.00;99.90;;;;;;20897960;28;19913;-80
2021/10/17 16:31:54;;;;;;;;;;;11.50;99.90;;;;;;20918897;28;19921;-79
2021/10/17 16:41:55;;;;;;;;;;;11.40;99.90;;;;;;20927700;28;19921;-79
2021/10/17 16:51:55;;;;;;;;;;;10.70;99.90;;;;;;20939283;28;20441;-79
2021/10/17 17:01:56;;;;;;;;;;;10.30;99.90;;;;;;20927152;28;20419;-80
2021/10/17 17:11:57;;;;;;;;;;;10.20;99.90;;;;;;20923925;28;19916;-78
2021/10/17 17:21:58;;;;;;;;;;;9.90;99.90;;;;;;20903911;28;19939;-78
2021/10/17 17:31:58;;;;;;;;;;;9.50;99.90;;;;;;20919066;28;20409;-79
2021/10/17 17:41:59;;;;;;;;;;;9.50;99.90;;;;;;20922965;28;19912;-77
2021/10/17 17:52:00;;;;;;;;;;;9.00;99.90;;;;;;20919705;28;19952;-78
2021/10/17 18:02:00;;;;;;;;;;;8.90;99.90;;;;;;20901632;28;19917;-77
2021/10/17 18:12:02;;;;;;;;;;;8.40;99.90;;;;;;20939312;28;19936;-78
2021/10/17 18:22:02;;;;;;;;;;;8.00;99.90;;;;;;20904827;28;20345;-80
2021/10/17 18:32:03;;;;;;;;;;;7.80;99.90;;;;;;20933556;28;19917;-78
2021/10/17 18:42:04;;;;;;;;;;;7.60;99.90;;;;;;20916229;28;19912;-78
2021/10/17 18:52:06;;;;;;;;;;;7.30;99.90;;;;;;20929559;28;20370;-80
2021/10/17 19:02:07;;;;;;;;;;;7.20;99.90;;;;;;20961311;28;19939;-78
2021/10/17 19:12:08;;;;;;;;;;;7.50;99.90;;;;;;20945899;22;19925;-79
2021/10/17 19:22:09;;;;;;;;;;;7.30;99.90;;;;;;20929959;28;19924;-78
2021/10/17 19:32:10;;;;;;;;;;;7.20;99.90;;;;;;20912321;28;19924;-79
2021/10/17 19:42:11;;;;;;;;;;;7.40;99.90;;;;;;20907996;28;19984;-78
2021/10/17 19:52:11;;;;;;;;;;;7.30;99.90;;;;;;20884549;28;20394;-79
2021/10/17 20:02:12;;;;;;;;;;;7.20;99.90;;;;;;20899593;28;19962;-79
2021/10/17 20:12:13;;;;;;;;;;;7.10;99.90;;;;;;20948229;28;19921;-77
2021/10/17 20:22:13;;;;;;;;;;;7.00;99.90;;;;;;20951272;28;19916;-78
2021/10/17 20:32:14;;;;;;;;;;;7.00;99.90;;;;;;20980813;28;20424;-79
2021/10/17 20:42:16;;;;;;;;;;;6.70;99.90;;;;;;20959549;28;19917;-79
2021/10/17 20:52:17;;;;;;;;;;;6.80;99.90;;;;;;20837862;28;20063;-77
2021/10/17 21:02:18;;;;;;;;;;;6.70;99.90;;;;;;20875492;28;20437;-78
2021/10/17 21:12:19;;;;;;;;;;;6.60;99.90;;;;;;20912314;28;19928;-80
2021/10/17 21:22:19;;;;;;;;;;;6.40;99.90;;;;;;20923178;28;19913;-78
2021/10/17 21:32:20;;;;;;;;;;;6.10;99.90;;;;;;20936398;28;19955;-80
2021/10/17 21:42:21;;;;;;;;;;;6.20;99.90;;;;;;20930995;28;19944;-79
2021/10/17 21:52:22;;;;;;;;;;;6.50;99.90;;;;;;20890825;28;19917;-78
2021/10/17 22:02:22;;;;;;;;;;;6.70;99.90;;;;;;20851525;28;20375;-79
2021/10/17 22:12:23;;;;;;;;;;;6.80;99.90;;;;;;20827829;28;19956;-78
2021/10/17 22:22:24;;;;;;;;;;;7.00;99.90;;;;;;20827420;28;19920;-78
2021/10/17 22:32:25;;;;;;;;;;;7.10;99.90;;;;;;20829451;28;19917;-78
2021/10/17 22:42:25;;;;;;;;;;;7.00;99.90;;;;;;20826359;28;19948;-77
2021/10/17 22:52:26;;;;;;;;;;;7.00;99.90;;;;;;20827884;28;20326;-78
2021/10/17 23:02:27;;;;;;;;;;;7.10;99.90;;;;;;20825186;28;19913;-78
2021/10/17 23:12:28;;;;;;;;;;;7.20;99.90;;;;;;20824595;28;20427;-78
2021/10/17 23:22:29;;;;;;;;;;;7.40;99.90;;;;;;20825033;28;19917;-78
2021/10/17 23:32:30;;;;;;;;;;;7.40;99.90;;;;;;20833635;28;19920;-78
2021/10/17 23:42:30;;;;;;;;;;;7.30;99.90;;;;;;20823632;28;19913;-78
2021/10/17 23:52:31;;;;;;;;;;;7.20;99.90;;;;;;20835588;28;19917;-78
